sensor_id;sensor_type;location;lat;lon;timestamp;P1;durP1;ratioP1;P2;durP2;ratioP2
65420;SDS011;52028;50.658;14.004;2022-09-25T00:00:33;26.15;;;15.48;;
65420;SDS011;52028;50.658;14.004;2022-09-25T00:02:58;26.15;;;14.88;;
65420;SDS011;52028;50.658;14.004;2022-09-25T00:05:23;22.42;;;14.40;;
65420;SDS011;52028;50.658;14.004;2022-09-25T00:07:49;28.60;;;14.35;;
65420;SDS011;52028;50.658;14.004;2022-09-25T00:10:15;25.42;;;13.85;;
65420;SDS011;52028;50.658;14.004;2022-09-25T00:12:40;22.02;;;14.27;;
65420;SDS011;52028;50.658;14.004;2022-09-25T00:15:06;26.38;;;14.93;;
65420;SDS011;52028;50.658;14.004;2022-09-25T00:17:32;23.65;;;14.07;;
65420;SDS011;52028;50.658;14.004;2022-09-25T00:19:58;22.73;;;13.90;;
65420;SDS011;52028;50.658;14.004;2022-09-25T00:22:23;29.52;;;15.32;;
65420;SDS011;52028;50.658;14.004;2022-09-25T00:24:50;23.45;;;14.40;;
65420;SDS011;52028;50.658;14.004;2022-09-25T00:27:16;22.25;;;13.73;;
65420;SDS011;52028;50.658;14.004;2022-09-25T00:29:43;23.85;;;12.93;;
65420;SDS011;52028;50.658;14.004;2022-09-25T00:32:09;22.17;;;13.55;;
65420;SDS011;52028;50.658;14.004;2022-09-25T00:34:36;28.48;;;13.20;;
65420;SDS011;52028;50.658;14.004;2022-09-25T00:37:02;22.85;;;13.57;;
65420;SDS011;52028;50.658;14.004;2022-09-25T00:39:28;28.73;;;13.95;;
65420;SDS011;52028;50.658;14.004;2022-09-25T00:41:54;24.15;;;13.63;;
65420;SDS011;52028;50.658;14.004;2022-09-25T00:53:10;23.83;;;14.23;;
65420;SDS011;52028;50.658;14.004;2022-09-25T00:55:38;23.75;;;14.30;;
65420;SDS011;52028;50.658;14.004;2022-09-25T00:58:08;24.08;;;14.48;;
65420;SDS011;52028;50.658;14.004;2022-09-25T01:00:36;23.60;;;14.30;;
65420;SDS011;52028;50.658;14.004;2022-09-25T01:03:02;23.35;;;13.52;;
65420;SDS011;52028;50.658;14.004;2022-09-25T01:05:33;22.80;;;14.38;;
65420;SDS011;52028;50.658;14.004;2022-09-25T01:08:01;28.65;;;14.60;;
65420;SDS011;52028;50.658;14.004;2022-09-25T01:10:29;23.10;;;14.63;;
65420;SDS011;52028;50.658;14.004;2022-09-25T01:12:56;26.10;;;14.25;;
65420;SDS011;52028;50.658;14.004;2022-09-25T01:15:40;24.30;;;14.25;;
65420;SDS011;52028;50.658;14.004;2022-09-25T01:21:24;25.08;;;14.52;;
65420;SDS011;52028;50.658;14.004;2022-09-25T01:27:01;28.65;;;15.30;;
65420;SDS011;52028;50.658;14.004;2022-09-25T01:30:01;24.73;;;14.43;;
65420;SDS011;52028;50.658;14.004;2022-09-25T01:35:48;25.15;;;14.68;;
65420;SDS011;52028;50.658;14.004;2022-09-25T01:38:31;25.92;;;14.15;;
65420;SDS011;52028;50.658;14.004;2022-09-25T01:46:58;22.25;;;14.13;;
65420;SDS011;52028;50.658;14.004;2022-09-25T01:52:18;23.85;;;13.73;;
65420;SDS011;52028;50.658;14.004;2022-09-25T01:54:50;24.83;;;14.73;;
65420;SDS011;52028;50.658;14.004;2022-09-25T01:57:28;24.15;;;13.68;;
65420;SDS011;52028;50.658;14.004;2022-09-25T01:59:59;28.67;;;14.95;;
65420;SDS011;52028;50.658;14.004;2022-09-25T02:02:31;37.60;;;16.23;;
65420;SDS011;52028;50.658;14.004;2022-09-25T02:05:04;25.35;;;15.13;;
65420;SDS011;52028;50.658;14.004;2022-09-25T02:07:36;24.02;;;14.45;;
65420;SDS011;52028;50.658;14.004;2022-09-25T02:10:11;23.85;;;13.68;;
65420;SDS011;52028;50.658;14.004;2022-09-25T02:12:54;22.55;;;13.98;;
65420;SDS011;52028;50.658;14.004;2022-09-25T02:15:24;26.73;;;14.43;;
65420;SDS011;52028;50.658;14.004;2022-09-25T02:17:54;27.00;;;15.15;;
65420;SDS011;52028;50.658;14.004;2022-09-25T02:20:47;23.70;;;14.48;;
65420;SDS011;52028;50.658;14.004;2022-09-25T02:26:27;20.17;;;12.88;;
65420;SDS011;52028;50.658;14.004;2022-09-25T02:28:54;19.45;;;12.40;;
65420;SDS011;52028;50.658;14.004;2022-09-25T02:31:26;19.55;;;13.30;;
65420;SDS011;52028;50.658;14.004;2022-09-25T02:33:55;22.60;;;13.68;;
65420;SDS011;52028;50.658;14.004;2022-09-25T02:36:21;24.58;;;13.85;;
65420;SDS011;52028;50.658;14.004;2022-09-25T02:38:50;21.95;;;13.73;;
65420;SDS011;52028;50.658;14.004;2022-09-25T02:48:53;24.80;;;14.02;;
65420;SDS011;52028;50.658;14.004;2022-09-25T02:59:33;24.75;;;14.00;;
65420;SDS011;52028;50.658;14.004;2022-09-25T03:02:02;23.95;;;14.48;;
65420;SDS011;52028;50.658;14.004;2022-09-25T03:04:27;24.15;;;13.23;;
65420;SDS011;52028;50.658;14.004;2022-09-25T03:06:56;25.85;;;14.65;;
65420;SDS011;52028;50.658;14.004;2022-09-25T03:09:22;22.10;;;13.55;;
65420;SDS011;52028;50.658;14.004;2022-09-25T03:11:49;21.90;;;14.45;;
65420;SDS011;52028;50.658;14.004;2022-09-25T03:14:15;25.60;;;13.82;;
65420;SDS011;52028;50.658;14.004;2022-09-25T03:19:16;37.38;;;14.30;;
65420;SDS011;52028;50.658;14.004;2022-09-25T03:21:45;21.83;;;13.82;;
65420;SDS011;52028;50.658;14.004;2022-09-25T03:24:11;25.05;;;14.40;;
65420;SDS011;52028;50.658;14.004;2022-09-25T03:26:37;27.08;;;15.07;;
65420;SDS011;52028;50.658;14.004;2022-09-25T03:29:02;29.20;;;15.00;;
65420;SDS011;52028;50.658;14.004;2022-09-25T03:31:28;27.27;;;14.02;;
65420;SDS011;52028;50.658;14.004;2022-09-25T03:33:54;24.67;;;14.15;;
65420;SDS011;52028;50.658;14.004;2022-09-25T03:36:20;25.75;;;14.38;;
65420;SDS011;52028;50.658;14.004;2022-09-25T03:38:48;24.85;;;13.48;;
65420;SDS011;52028;50.658;14.004;2022-09-25T03:41:15;20.38;;;13.25;;
65420;SDS011;52028;50.658;14.004;2022-09-25T03:43:45;19.75;;;12.77;;
65420;SDS011;52028;50.658;14.004;2022-09-25T03:46:12;22.52;;;13.65;;
65420;SDS011;52028;50.658;14.004;2022-09-25T03:48:39;20.48;;;12.38;;
65420;SDS011;52028;50.658;14.004;2022-09-25T03:51:06;22.98;;;13.85;;
65420;SDS011;52028;50.658;14.004;2022-09-25T03:53:33;22.75;;;13.90;;
65420;SDS011;52028;50.658;14.004;2022-09-25T03:55:59;21.50;;;14.30;;
65420;SDS011;52028;50.658;14.004;2022-09-25T03:58:29;24.38;;;13.63;;
65420;SDS011;52028;50.658;14.004;2022-09-25T04:00:54;19.63;;;13.05;;
65420;SDS011;52028;50.658;14.004;2022-09-25T04:03:21;25.17;;;13.93;;
65420;SDS011;52028;50.658;14.004;2022-09-25T04:05:47;19.02;;;12.77;;
65420;SDS011;52028;50.658;14.004;2022-09-25T04:08:13;22.92;;;13.48;;
65420;SDS011;52028;50.658;14.004;2022-09-25T04:10:38;22.40;;;13.38;;
65420;SDS011;52028;50.658;14.004;2022-09-25T04:13:07;26.58;;;14.60;;
65420;SDS011;52028;50.658;14.004;2022-09-25T04:15:37;19.52;;;12.25;;
65420;SDS011;52028;50.658;14.004;2022-09-25T04:18:06;26.17;;;14.30;;
65420;SDS011;52028;50.658;14.004;2022-09-25T04:20:32;22.70;;;12.82;;
65420;SDS011;52028;50.658;14.004;2022-09-25T04:22:57;24.08;;;12.82;;
65420;SDS011;52028;50.658;14.004;2022-09-25T04:25:23;24.70;;;13.63;;
65420;SDS011;52028;50.658;14.004;2022-09-25T04:27:52;25.10;;;14.13;;
65420;SDS011;52028;50.658;14.004;2022-09-25T04:30:19;21.50;;;13.57;;
65420;SDS011;52028;50.658;14.004;2022-09-25T04:32:48;22.17;;;13.65;;
65420;SDS011;52028;50.658;14.004;2022-09-25T04:35:32;23.33;;;13.65;;
65420;SDS011;52028;50.658;14.004;2022-09-25T04:37:58;29.45;;;14.88;;
65420;SDS011;52028;50.658;14.004;2022-09-25T04:40:25;25.45;;;15.50;;
65420;SDS011;52028;50.658;14.004;2022-09-25T04:42:55;25.00;;;15.27;;
65420;SDS011;52028;50.658;14.004;2022-09-25T04:45:31;25.45;;;14.68;;
65420;SDS011;52028;50.658;14.004;2022-09-25T04:47:58;25.80;;;15.18;;
65420;SDS011;52028;50.658;14.004;2022-09-25T04:50:25;25.85;;;13.98;;
65420;SDS011;52028;50.658;14.004;2022-09-25T04:52:52;28.92;;;14.98;;
65420;SDS011;52028;50.658;14.004;2022-09-25T04:55:18;25.52;;;14.40;;
65420;SDS011;52028;50.658;14.004;2022-09-25T04:57:58;24.83;;;14.25;;
65420;SDS011;52028;50.658;14.004;2022-09-25T05:00:26;26.73;;;14.02;;
65420;SDS011;52028;50.658;14.004;2022-09-25T05:02:53;24.63;;;14.10;;
65420;SDS011;52028;50.658;14.004;2022-09-25T05:05:19;24.10;;;13.60;;
65420;SDS011;52028;50.658;14.004;2022-09-25T05:07:51;24.95;;;13.98;;
65420;SDS011;52028;50.658;14.004;2022-09-25T05:10:16;24.23;;;12.98;;
65420;SDS011;52028;50.658;14.004;2022-09-25T05:12:42;27.17;;;14.73;;
65420;SDS011;52028;50.658;14.004;2022-09-25T05:15:07;27.80;;;14.48;;
65420;SDS011;52028;50.658;14.004;2022-09-25T05:17:34;24.02;;;14.15;;
65420;SDS011;52028;50.658;14.004;2022-09-25T05:19:59;24.20;;;14.15;;
65420;SDS011;52028;50.658;14.004;2022-09-25T05:22:25;27.95;;;15.20;;
65420;SDS011;52028;50.658;14.004;2022-09-25T05:24:50;29.95;;;15.40;;
65420;SDS011;52028;50.658;14.004;2022-09-25T05:27:16;25.42;;;14.73;;
65420;SDS011;52028;50.658;14.004;2022-09-25T05:29:42;28.58;;;15.38;;
65420;SDS011;52028;50.658;14.004;2022-09-25T05:32:07;26.13;;;14.93;;
65420;SDS011;52028;50.658;14.004;2022-09-25T05:34:32;27.40;;;15.55;;
65420;SDS011;52028;50.658;14.004;2022-09-25T05:36:58;27.83;;;15.50;;
65420;SDS011;52028;50.658;14.004;2022-09-25T05:39:24;27.45;;;15.90;;
65420;SDS011;52028;50.658;14.004;2022-09-25T05:41:49;30.55;;;16.50;;
65420;SDS011;52028;50.658;14.004;2022-09-25T05:44:15;25.65;;;15.88;;
65420;SDS011;52028;50.658;14.004;2022-09-25T05:46:40;30.08;;;15.98;;
65420;SDS011;52028;50.658;14.004;2022-09-25T05:49:06;25.02;;;15.52;;
65420;SDS011;52028;50.658;14.004;2022-09-25T05:51:31;21.85;;;13.65;;
65420;SDS011;52028;50.658;14.004;2022-09-25T05:53:57;31.00;;;16.98;;
65420;SDS011;52028;50.658;14.004;2022-09-25T05:56:25;33.72;;;17.80;;
65420;SDS011;52028;50.658;14.004;2022-09-25T05:58:51;30.85;;;16.73;;
65420;SDS011;52028;50.658;14.004;2022-09-25T06:01:18;24.10;;;15.68;;
65420;SDS011;52028;50.658;14.004;2022-09-25T06:03:44;27.13;;;15.57;;
65420;SDS011;52028;50.658;14.004;2022-09-25T06:06:11;24.38;;;14.18;;
65420;SDS011;52028;50.658;14.004;2022-09-25T06:08:36;25.65;;;14.60;;
65420;SDS011;52028;50.658;14.004;2022-09-25T06:11:03;26.50;;;15.93;;
65420;SDS011;52028;50.658;14.004;2022-09-25T06:13:30;24.08;;;14.55;;
65420;SDS011;52028;50.658;14.004;2022-09-25T06:15:58;24.30;;;14.60;;
65420;SDS011;52028;50.658;14.004;2022-09-25T06:18:25;26.80;;;15.00;;
65420;SDS011;52028;50.658;14.004;2022-09-25T06:20:57;24.38;;;14.60;;
65420;SDS011;52028;50.658;14.004;2022-09-25T06:23:24;25.02;;;14.23;;
65420;SDS011;52028;50.658;14.004;2022-09-25T06:25:50;25.13;;;15.40;;
65420;SDS011;52028;50.658;14.004;2022-09-25T06:28:15;26.00;;;15.07;;
65420;SDS011;52028;50.658;14.004;2022-09-25T06:30:40;21.67;;;14.30;;
65420;SDS011;52028;50.658;14.004;2022-09-25T06:33:08;24.80;;;14.65;;
65420;SDS011;52028;50.658;14.004;2022-09-25T06:35:39;24.95;;;15.48;;
65420;SDS011;52028;50.658;14.004;2022-09-25T06:38:09;27.98;;;16.73;;
65420;SDS011;52028;50.658;14.004;2022-09-25T06:40:35;29.75;;;16.17;;
65420;SDS011;52028;50.658;14.004;2022-09-25T06:43:03;28.77;;;14.40;;
65420;SDS011;52028;50.658;14.004;2022-09-25T06:45:30;23.48;;;14.27;;
65420;SDS011;52028;50.658;14.004;2022-09-25T06:50:55;25.90;;;14.18;;
65420;SDS011;52028;50.658;14.004;2022-09-25T06:53:21;29.52;;;15.38;;
65420;SDS011;52028;50.658;14.004;2022-09-25T06:55:48;28.10;;;15.05;;
65420;SDS011;52028;50.658;14.004;2022-09-25T06:58:15;24.05;;;15.90;;
65420;SDS011;52028;50.658;14.004;2022-09-25T07:00:46;25.67;;;15.55;;
65420;SDS011;52028;50.658;14.004;2022-09-25T07:03:13;27.02;;;15.45;;
65420;SDS011;52028;50.658;14.004;2022-09-25T07:06:00;25.55;;;14.90;;
65420;SDS011;52028;50.658;14.004;2022-09-25T07:08:27;24.10;;;15.80;;
65420;SDS011;52028;50.658;14.004;2022-09-25T07:10:53;28.40;;;17.17;;
65420;SDS011;52028;50.658;14.004;2022-09-25T07:13:20;24.27;;;15.80;;
65420;SDS011;52028;50.658;14.004;2022-09-25T07:18:27;28.70;;;16.80;;
65420;SDS011;52028;50.658;14.004;2022-09-25T07:20:58;25.15;;;14.93;;
65420;SDS011;52028;50.658;14.004;2022-09-25T07:23:25;27.75;;;15.88;;
65420;SDS011;52028;50.658;14.004;2022-09-25T07:25:51;23.38;;;15.27;;
65420;SDS011;52028;50.658;14.004;2022-09-25T07:28:16;22.92;;;14.80;;
65420;SDS011;52028;50.658;14.004;2022-09-25T07:30:43;25.77;;;16.27;;
65420;SDS011;52028;50.658;14.004;2022-09-25T07:33:09;26.00;;;15.55;;
65420;SDS011;52028;50.658;14.004;2022-09-25T07:35:36;25.65;;;15.35;;
65420;SDS011;52028;50.658;14.004;2022-09-25T07:38:02;24.55;;;15.55;;
65420;SDS011;52028;50.658;14.004;2022-09-25T07:40:28;29.42;;;17.85;;
65420;SDS011;52028;50.658;14.004;2022-09-25T07:42:59;24.77;;;16.23;;
65420;SDS011;52028;50.658;14.004;2022-09-25T07:45:27;24.40;;;15.20;;
65420;SDS011;52028;50.658;14.004;2022-09-25T07:47:56;23.77;;;15.63;;
65420;SDS011;52028;50.658;14.004;2022-09-25T07:50:27;22.27;;;15.57;;
65420;SDS011;52028;50.658;14.004;2022-09-25T07:52:53;23.33;;;14.95;;
65420;SDS011;52028;50.658;14.004;2022-09-25T07:55:19;23.65;;;15.13;;
65420;SDS011;52028;50.658;14.004;2022-09-25T07:57:44;23.80;;;14.40;;
65420;SDS011;52028;50.658;14.004;2022-09-25T08:00:10;25.55;;;15.00;;
65420;SDS011;52028;50.658;14.004;2022-09-25T08:02:36;24.30;;;15.48;;
65420;SDS011;52028;50.658;14.004;2022-09-25T08:05:02;23.63;;;15.77;;
65420;SDS011;52028;50.658;14.004;2022-09-25T08:07:27;25.90;;;16.23;;
65420;SDS011;52028;50.658;14.004;2022-09-25T08:09:52;27.70;;;15.68;;
65420;SDS011;52028;50.658;14.004;2022-09-25T08:12:18;26.02;;;15.43;;
65420;SDS011;52028;50.658;14.004;2022-09-25T08:14:44;24.15;;;16.30;;
65420;SDS011;52028;50.658;14.004;2022-09-25T08:17:10;22.77;;;15.75;;
65420;SDS011;52028;50.658;14.004;2022-09-25T08:19:35;27.10;;;16.80;;
65420;SDS011;52028;50.658;14.004;2022-09-25T08:22:01;29.67;;;17.67;;
65420;SDS011;52028;50.658;14.004;2022-09-25T08:24:26;24.45;;;16.88;;
65420;SDS011;52028;50.658;14.004;2022-09-25T08:26:51;24.90;;;16.13;;
65420;SDS011;52028;50.658;14.004;2022-09-25T08:29:17;30.55;;;17.98;;
65420;SDS011;52028;50.658;14.004;2022-09-25T08:31:42;29.35;;;18.58;;
65420;SDS011;52028;50.658;14.004;2022-09-25T08:34:07;28.17;;;19.33;;
65420;SDS011;52028;50.658;14.004;2022-09-25T08:36:34;27.92;;;18.38;;
65420;SDS011;52028;50.658;14.004;2022-09-25T08:39:01;27.75;;;17.25;;
65420;SDS011;52028;50.658;14.004;2022-09-25T08:41:47;24.88;;;16.73;;
65420;SDS011;52028;50.658;14.004;2022-09-25T08:46:56;26.58;;;16.08;;
65420;SDS011;52028;50.658;14.004;2022-09-25T08:52:23;27.73;;;15.32;;
65420;SDS011;52028;50.658;14.004;2022-09-25T08:54:49;23.08;;;15.73;;
65420;SDS011;52028;50.658;14.004;2022-09-25T08:57:31;28.88;;;15.50;;
65420;SDS011;52028;50.658;14.004;2022-09-25T09:00:11;21.20;;;13.77;;
65420;SDS011;52028;50.658;14.004;2022-09-25T09:02:51;24.30;;;14.63;;
65420;SDS011;52028;50.658;14.004;2022-09-25T09:05:20;20.73;;;13.75;;
65420;SDS011;52028;50.658;14.004;2022-09-25T09:07:56;20.50;;;13.25;;
65420;SDS011;52028;50.658;14.004;2022-09-25T09:10:29;19.92;;;12.90;;
65420;SDS011;52028;50.658;14.004;2022-09-25T09:18:23;20.98;;;12.98;;
65420;SDS011;52028;50.658;14.004;2022-09-25T09:20:51;21.00;;;12.55;;
65420;SDS011;52028;50.658;14.004;2022-09-25T09:23:19;19.38;;;12.90;;
65420;SDS011;52028;50.658;14.004;2022-09-25T09:25:58;21.38;;;12.40;;
65420;SDS011;52028;50.658;14.004;2022-09-25T09:31:20;20.75;;;13.13;;
65420;SDS011;52028;50.658;14.004;2022-09-25T09:33:56;19.88;;;12.75;;
65420;SDS011;52028;50.658;14.004;2022-09-25T09:36:52;20.20;;;12.25;;
65420;SDS011;52028;50.658;14.004;2022-09-25T09:42:39;24.30;;;13.90;;
65420;SDS011;52028;50.658;14.004;2022-09-25T09:50:44;19.67;;;13.02;;
65420;SDS011;52028;50.658;14.004;2022-09-25T09:56:14;20.15;;;12.98;;
65420;SDS011;52028;50.658;14.004;2022-09-25T09:59:05;19.48;;;13.27;;
65420;SDS011;52028;50.658;14.004;2022-09-25T10:01:40;16.60;;;12.75;;
65420;SDS011;52028;50.658;14.004;2022-09-25T10:07:02;16.08;;;11.93;;
65420;SDS011;52028;50.658;14.004;2022-09-25T10:09:32;17.58;;;12.75;;
65420;SDS011;52028;50.658;14.004;2022-09-25T10:12:01;18.80;;;12.15;;
65420;SDS011;52028;50.658;14.004;2022-09-25T10:14:32;17.92;;;12.18;;
65420;SDS011;52028;50.658;14.004;2022-09-25T10:17:02;16.67;;;11.98;;
65420;SDS011;52028;50.658;14.004;2022-09-25T10:19:30;16.88;;;11.73;;
65420;SDS011;52028;50.658;14.004;2022-09-25T10:22:09;18.13;;;12.60;;
65420;SDS011;52028;50.658;14.004;2022-09-25T10:32:40;14.38;;;10.65;;
65420;SDS011;52028;50.658;14.004;2022-09-25T10:35:18;15.88;;;11.25;;
65420;SDS011;52028;50.658;14.004;2022-09-25T10:37:53;18.95;;;11.65;;
65420;SDS011;52028;50.658;14.004;2022-09-25T10:40:41;17.77;;;11.55;;
65420;SDS011;52028;50.658;14.004;2022-09-25T10:45:37;18.27;;;11.30;;
65420;SDS011;52028;50.658;14.004;2022-09-25T10:51:15;15.57;;;10.75;;
65420;SDS011;52028;50.658;14.004;2022-09-25T10:53:42;17.30;;;9.90;;
65420;SDS011;52028;50.658;14.004;2022-09-25T10:56:17;13.60;;;9.75;;
65420;SDS011;52028;50.658;14.004;2022-09-25T10:58:52;12.50;;;9.52;;
65420;SDS011;52028;50.658;14.004;2022-09-25T11:01:20;14.00;;;8.70;;
65420;SDS011;52028;50.658;14.004;2022-09-25T11:03:57;14.60;;;8.85;;
65420;SDS011;52028;50.658;14.004;2022-09-25T11:06:24;11.88;;;8.65;;
65420;SDS011;52028;50.658;14.004;2022-09-25T11:11:27;8.98;;;7.20;;
65420;SDS011;52028;50.658;14.004;2022-09-25T11:13:56;9.68;;;6.82;;
65420;SDS011;52028;50.658;14.004;2022-09-25T11:16:46;9.93;;;7.90;;
65420;SDS011;52028;50.658;14.004;2022-09-25T11:25:17;11.20;;;7.63;;
65420;SDS011;52028;50.658;14.004;2022-09-25T11:28:15;9.38;;;6.68;;
65420;SDS011;52028;50.658;14.004;2022-09-25T11:30:53;10.02;;;6.28;;
65420;SDS011;52028;50.658;14.004;2022-09-25T11:36:07;10.68;;;6.45;;
65420;SDS011;52028;50.658;14.004;2022-09-25T11:38:45;6.88;;;5.63;;
65420;SDS011;52028;50.658;14.004;2022-09-25T11:41:39;10.38;;;6.97;;
65420;SDS011;52028;50.658;14.004;2022-09-25T11:49:40;9.13;;;5.78;;
65420;SDS011;52028;50.658;14.004;2022-09-25T12:11:36;9.65;;;7.47;;
65420;SDS011;52028;50.658;14.004;2022-09-25T12:20:12;9.05;;;7.25;;
65420;SDS011;52028;50.658;14.004;2022-09-25T12:25:16;10.43;;;7.95;;
65420;SDS011;52028;50.658;14.004;2022-09-25T12:27:57;8.68;;;6.60;;
65420;SDS011;52028;50.658;14.004;2022-09-25T12:30:46;10.60;;;7.70;;
65420;SDS011;52028;50.658;14.004;2022-09-25T12:36:19;8.77;;;6.53;;
65420;SDS011;52028;50.658;14.004;2022-09-25T12:38:57;8.13;;;6.45;;
65420;SDS011;52028;50.658;14.004;2022-09-25T12:41:33;8.82;;;6.55;;
65420;SDS011;52028;50.658;14.004;2022-09-25T12:44:08;8.20;;;6.28;;
65420;SDS011;52028;50.658;14.004;2022-09-25T12:46:43;9.70;;;5.57;;
65420;SDS011;52028;50.658;14.004;2022-09-25T12:49:48;9.52;;;6.70;;
65420;SDS011;52028;50.658;14.004;2022-09-25T12:52:24;9.13;;;6.80;;
65420;SDS011;52028;50.658;14.004;2022-09-25T12:54:59;9.73;;;6.25;;
65420;SDS011;52028;50.658;14.004;2022-09-25T12:57:27;7.20;;;5.82;;
65420;SDS011;52028;50.658;14.004;2022-09-25T13:00:16;7.85;;;5.35;;
65420;SDS011;52028;50.658;14.004;2022-09-25T13:05:32;9.80;;;4.97;;
65420;SDS011;52028;50.658;14.004;2022-09-25T13:10:55;6.57;;;4.00;;
65420;SDS011;52028;50.658;14.004;2022-09-25T13:13:25;6.63;;;4.93;;
65420;SDS011;52028;50.658;14.004;2022-09-25T13:15:58;6.22;;;4.60;;
65420;SDS011;52028;50.658;14.004;2022-09-25T13:18:26;6.15;;;4.78;;
65420;SDS011;52028;50.658;14.004;2022-09-25T13:20:56;6.80;;;5.28;;
65420;SDS011;52028;50.658;14.004;2022-09-25T13:25:57;8.05;;;5.90;;
65420;SDS011;52028;50.658;14.004;2022-09-25T13:33:56;7.28;;;4.43;;
65420;SDS011;52028;50.658;14.004;2022-09-25T13:55:38;6.95;;;4.95;;
65420;SDS011;52028;50.658;14.004;2022-09-25T13:58:14;7.40;;;4.28;;
65420;SDS011;52028;50.658;14.004;2022-09-25T14:03:29;11.55;;;5.50;;
65420;SDS011;52028;50.658;14.004;2022-09-25T14:05:56;7.28;;;5.38;;
65420;SDS011;52028;50.658;14.004;2022-09-25T14:08:23;8.52;;;5.32;;
65420;SDS011;52028;50.658;14.004;2022-09-25T14:10:53;8.23;;;5.72;;
65420;SDS011;52028;50.658;14.004;2022-09-25T14:13:21;8.68;;;5.63;;
65420;SDS011;52028;50.658;14.004;2022-09-25T14:15:49;8.85;;;5.55;;
65420;SDS011;52028;50.658;14.004;2022-09-25T14:18:18;7.57;;;5.43;;
65420;SDS011;52028;50.658;14.004;2022-09-25T14:20:48;7.30;;;5.50;;
65420;SDS011;52028;50.658;14.004;2022-09-25T14:25:44;8.90;;;6.47;;
65420;SDS011;52028;50.658;14.004;2022-09-25T14:28:18;10.70;;;6.13;;
65420;SDS011;52028;50.658;14.004;2022-09-25T14:30:49;9.65;;;6.10;;
65420;SDS011;52028;50.658;14.004;2022-09-25T14:38:38;9.50;;;7.22;;
65420;SDS011;52028;50.658;14.004;2022-09-25T14:46:41;12.95;;;7.30;;
65420;SDS011;52028;50.658;14.004;2022-09-25T14:49:15;9.55;;;7.25;;
65420;SDS011;52028;50.658;14.004;2022-09-25T14:52:03;11.32;;;8.25;;
65420;SDS011;52028;50.658;14.004;2022-09-25T14:54:32;10.45;;;7.75;;
65420;SDS011;52028;50.658;14.004;2022-09-25T14:57:02;12.10;;;8.27;;
65420;SDS011;52028;50.658;14.004;2022-09-25T14:59:37;10.43;;;7.45;;
65420;SDS011;52028;50.658;14.004;2022-09-25T15:02:17;11.30;;;9.38;;
65420;SDS011;52028;50.658;14.004;2022-09-25T15:04:46;14.93;;;8.65;;
65420;SDS011;52028;50.658;14.004;2022-09-25T15:07:16;13.27;;;9.13;;
65420;SDS011;52028;50.658;14.004;2022-09-25T15:09:45;13.35;;;8.38;;
65420;SDS011;52028;50.658;14.004;2022-09-25T15:12:34;16.15;;;8.77;;
65420;SDS011;52028;50.658;14.004;2022-09-25T15:17:33;11.90;;;7.50;;
65420;SDS011;52028;50.658;14.004;2022-09-25T15:20:19;10.75;;;7.40;;
65420;SDS011;52028;50.658;14.004;2022-09-25T15:22:48;11.60;;;6.90;;
65420;SDS011;52028;50.658;14.004;2022-09-25T15:25:21;9.70;;;7.15;;
65420;SDS011;52028;50.658;14.004;2022-09-25T15:27:54;11.80;;;7.78;;
65420;SDS011;52028;50.658;14.004;2022-09-25T15:30:19;11.30;;;7.68;;
65420;SDS011;52028;50.658;14.004;2022-09-25T15:32:46;9.43;;;7.30;;
65420;SDS011;52028;50.658;14.004;2022-09-25T15:37:43;12.77;;;7.13;;
65420;SDS011;52028;50.658;14.004;2022-09-25T15:42:44;10.35;;;7.60;;
65420;SDS011;52028;50.658;14.004;2022-09-25T15:48:30;13.07;;;7.60;;
65420;SDS011;52028;50.658;14.004;2022-09-25T15:53:37;15.13;;;8.32;;
65420;SDS011;52028;50.658;14.004;2022-09-25T15:56:43;11.25;;;8.02;;
65420;SDS011;52028;50.658;14.004;2022-09-25T15:59:17;12.65;;;7.88;;
65420;SDS011;52028;50.658;14.004;2022-09-25T16:01:46;17.67;;;8.43;;
65420;SDS011;52028;50.658;14.004;2022-09-25T16:04:31;10.40;;;7.18;;
65420;SDS011;52028;50.658;14.004;2022-09-25T16:07:35;8.80;;;6.35;;
65420;SDS011;52028;50.658;14.004;2022-09-25T16:12:50;9.27;;;6.65;;
65420;SDS011;52028;50.658;14.004;2022-09-25T16:17:51;11.02;;;7.55;;
65420;SDS011;52028;50.658;14.004;2022-09-25T16:20:37;11.43;;;7.00;;
65420;SDS011;52028;50.658;14.004;2022-09-25T16:23:04;10.93;;;6.75;;
65420;SDS011;52028;50.658;14.004;2022-09-25T16:25:43;16.70;;;8.45;;
65420;SDS011;52028;50.658;14.004;2022-09-25T16:35:59;10.88;;;7.55;;
65420;SDS011;52028;50.658;14.004;2022-09-25T16:38:28;15.32;;;8.75;;
65420;SDS011;52028;50.658;14.004;2022-09-25T16:41:01;19.80;;;10.15;;
65420;SDS011;52028;50.658;14.004;2022-09-25T16:43:29;15.57;;;9.00;;
65420;SDS011;52028;50.658;14.004;2022-09-25T16:45:57;14.40;;;9.13;;
65420;SDS011;52028;50.658;14.004;2022-09-25T16:48:29;17.52;;;9.63;;
65420;SDS011;52028;50.658;14.004;2022-09-25T16:51:00;12.82;;;8.15;;
65420;SDS011;52028;50.658;14.004;2022-09-25T16:53:27;12.70;;;7.03;;
65420;SDS011;52028;50.658;14.004;2022-09-25T16:55:53;9.13;;;6.57;;
65420;SDS011;52028;50.658;14.004;2022-09-25T16:58:19;11.73;;;7.22;;
65420;SDS011;52028;50.658;14.004;2022-09-25T17:00:44;9.90;;;6.22;;
65420;SDS011;52028;50.658;14.004;2022-09-25T17:03:13;10.30;;;6.82;;
65420;SDS011;52028;50.658;14.004;2022-09-25T17:05:39;9.32;;;6.43;;
65420;SDS011;52028;50.658;14.004;2022-09-25T17:08:15;10.60;;;6.20;;
65420;SDS011;52028;50.658;14.004;2022-09-25T17:13:13;10.63;;;7.03;;
65420;SDS011;52028;50.658;14.004;2022-09-25T17:15:40;11.90;;;8.35;;
65420;SDS011;52028;50.658;14.004;2022-09-25T17:18:10;11.68;;;8.27;;
65420;SDS011;52028;50.658;14.004;2022-09-25T17:20:40;15.80;;;8.60;;
65420;SDS011;52028;50.658;14.004;2022-09-25T17:23:05;12.82;;;7.10;;
65420;SDS011;52028;50.658;14.004;2022-09-25T17:25:42;10.80;;;7.07;;
65420;SDS011;52028;50.658;14.004;2022-09-25T17:28:11;11.05;;;7.32;;
65420;SDS011;52028;50.658;14.004;2022-09-25T17:30:39;12.50;;;7.57;;
65420;SDS011;52028;50.658;14.004;2022-09-25T17:33:08;16.17;;;10.50;;
65420;SDS011;52028;50.658;14.004;2022-09-25T17:35:43;29.33;;;14.70;;
65420;SDS011;52028;50.658;14.004;2022-09-25T17:38:09;21.73;;;13.05;;
65420;SDS011;52028;50.658;14.004;2022-09-25T17:40:37;24.65;;;13.90;;
65420;SDS011;52028;50.658;14.004;2022-09-25T17:43:03;17.08;;;11.85;;
65420;SDS011;52028;50.658;14.004;2022-09-25T17:45:37;23.15;;;13.70;;
65420;SDS011;52028;50.658;14.004;2022-09-25T17:50:35;14.82;;;10.07;;
65420;SDS011;52028;50.658;14.004;2022-09-25T17:53:02;14.70;;;9.70;;
65420;SDS011;52028;50.658;14.004;2022-09-25T17:55:31;17.05;;;10.43;;
65420;SDS011;52028;50.658;14.004;2022-09-25T17:57:56;16.20;;;9.50;;
65420;SDS011;52028;50.658;14.004;2022-09-25T18:00:22;12.05;;;8.57;;
65420;SDS011;52028;50.658;14.004;2022-09-25T18:02:47;13.18;;;9.63;;
65420;SDS011;52028;50.658;14.004;2022-09-25T18:05:14;14.45;;;9.90;;
65420;SDS011;52028;50.658;14.004;2022-09-25T18:07:40;15.23;;;9.93;;
65420;SDS011;52028;50.658;14.004;2022-09-25T18:10:06;17.30;;;10.50;;
65420;SDS011;52028;50.658;14.004;2022-09-25T18:12:32;15.05;;;10.35;;
65420;SDS011;52028;50.658;14.004;2022-09-25T18:14:57;13.93;;;9.85;;